sensor_id;sensor_type;location;lat;lon;timestamp;temperature;humidity
11188;DHT22;5650;52.700;7.306;2023-06-10T00:00:17;18.70;90.20
11188;DHT22;5650;52.700;7.306;2023-06-10T00:02:47;18.60;90.80
11188;DHT22;5650;52.700;7.306;2023-06-10T00:05:14;18.60;91.10
11188;DHT22;5650;52.700;7.306;2023-06-10T00:07:43;18.60;91.50
11188;DHT22;5650;52.700;7.306;2023-06-10T00:10:12;18.60;91.90
11188;DHT22;5650;52.700;7.306;2023-06-10T00:12:41;18.50;92.40
11188;DHT22;5650;52.700;7.306;2023-06-10T00:15:15;18.50;92.90
11188;DHT22;5650;52.700;7.306;2023-06-10T00:17:42;18.50;93.00
11188;DHT22;5650;52.700;7.306;2023-06-10T00:20:10;18.40;93.40
11188;DHT22;5650;52.700;7.306;2023-06-10T00:22:38;18.40;93.70
11188;DHT22;5650;52.700;7.306;2023-06-10T00:25:11;18.40;94.10
11188;DHT22;5650;52.700;7.306;2023-06-10T00:27:38;18.30;94.50
11188;DHT22;5650;52.700;7.306;2023-06-10T00:30:09;18.30;94.80
11188;DHT22;5650;52.700;7.306;2023-06-10T00:32:37;18.30;95.20
11188;DHT22;5650;52.700;7.306;2023-06-10T00:35:16;18.20;95.60
11188;DHT22;5650;52.700;7.306;2023-06-10T00:37:46;18.20;95.90
11188;DHT22;5650;52.700;7.306;2023-06-10T00:40:16;18.10;96.20
11188;DHT22;5650;52.700;7.306;2023-06-10T00:42:47;18.10;96.60
11188;DHT22;5650;52.700;7.306;2023-06-10T00:45:17;18.00;96.90
11188;DHT22;5650;52.700;7.306;2023-06-10T00:47:44;18.00;97.40
11188;DHT22;5650;52.700;7.306;2023-06-10T00:50:11;18.00;97.90
11188;DHT22;5650;52.700;7.306;2023-06-10T00:52:50;17.90;98.30
11188;DHT22;5650;52.700;7.306;2023-06-10T00:55:26;17.90;98.80
11188;DHT22;5650;52.700;7.306;2023-06-10T00:57:53;17.80;99.30
11188;DHT22;5650;52.700;7.306;2023-06-10T01:00:20;17.80;99.60
11188;DHT22;5650;52.700;7.306;2023-06-10T01:02:51;17.70;99.90
11188;DHT22;5650;52.700;7.306;2023-06-10T01:05:19;17.70;99.90
11188;DHT22;5650;52.700;7.306;2023-06-10T01:07:53;17.70;99.90
11188;DHT22;5650;52.700;7.306;2023-06-10T01:10:34;17.70;99.90
11188;DHT22;5650;52.700;7.306;2023-06-10T01:13:10;17.60;99.90
11188;DHT22;5650;52.700;7.306;2023-06-10T01:15:41;17.60;99.90
11188;DHT22;5650;52.700;7.306;2023-06-10T01:18:09;17.50;99.90
11188;DHT22;5650;52.700;7.306;2023-06-10T01:20:42;17.50;99.90
11188;DHT22;5650;52.700;7.306;2023-06-10T01:23:11;17.50;99.90
11188;DHT22;5650;52.700;7.306;2023-06-10T01:25:40;17.40;99.90
11188;DHT22;5650;52.700;7.306;2023-06-10T01:28:14;17.40;99.90
11188;DHT22;5650;52.700;7.306;2023-06-10T01:30:48;17.30;99.90
11188;DHT22;5650;52.700;7.306;2023-06-10T01:33:28;17.30;99.90
11188;DHT22;5650;52.700;7.306;2023-06-10T01:35:58;17.30;99.90
11188;DHT22;5650;52.700;7.306;2023-06-10T01:38:32;17.30;99.90
11188;DHT22;5650;52.700;7.306;2023-06-10T01:41:03;17.20;99.90
11188;DHT22;5650;52.700;7.306;2023-06-10T01:43:37;17.20;99.90
11188;DHT22;5650;52.700;7.306;2023-06-10T01:46:11;17.10;99.90
11188;DHT22;5650;52.700;7.306;2023-06-10T01:48:41;17.10;99.90
11188;DHT22;5650;52.700;7.306;2023-06-10T01:51:12;17.10;99.90
11188;DHT22;5650;52.700;7.306;2023-06-10T01:53:40;17.00;99.90
11188;DHT22;5650;52.700;7.306;2023-06-10T01:56:07;17.00;99.90
11188;DHT22;5650;52.700;7.306;2023-06-10T01:58:38;17.00;99.90
11188;DHT22;5650;52.700;7.306;2023-06-10T02:01:05;16.90;99.90
11188;DHT22;5650;52.700;7.306;2023-06-10T02:03:36;16.90;99.90
11188;DHT22;5650;52.700;7.306;2023-06-10T02:06:09;16.80;99.90
11188;DHT22;5650;52.700;7.306;2023-06-10T02:08:36;16.80;99.90
11188;DHT22;5650;52.700;7.306;2023-06-10T02:11:11;16.80;99.90
11188;DHT22;5650;52.700;7.306;2023-06-10T02:13:44;16.70;99.90
11188;DHT22;5650;52.700;7.306;2023-06-10T02:16:11;16.70;99.90
11188;DHT22;5650;52.700;7.306;2023-06-10T02:18:45;16.70;99.90
11188;DHT22;5650;52.700;7.306;2023-06-10T02:21:17;16.60;99.90
11188;DHT22;5650;52.700;7.306;2023-06-10T02:23:47;16.60;99.90
11188;DHT22;5650;52.700;7.306;2023-06-10T02:26:18;16.60;99.90
11188;DHT22;5650;52.700;7.306;2023-06-10T02:28:49;16.50;99.90
11188;DHT22;5650;52.700;7.306;2023-06-10T02:31:16;16.50;99.90
11188;DHT22;5650;52.700;7.306;2023-06-10T02:33:48;16.50;99.90
11188;DHT22;5650;52.700;7.306;2023-06-10T02:36:17;16.40;99.90
11188;DHT22;5650;52.700;7.306;2023-06-10T02:38:44;16.40;99.90
11188;DHT22;5650;52.700;7.306;2023-06-10T02:41:12;16.40;99.90
11188;DHT22;5650;52.700;7.306;2023-06-10T02:43:40;16.30;99.90
11188;DHT22;5650;52.700;7.306;2023-06-10T02:46:07;16.30;99.90
11188;DHT22;5650;52.700;7.306;2023-06-10T02:48:41;16.20;99.90
11188;DHT22;5650;52.700;7.306;2023-06-10T02:51:15;16.20;99.90
11188;DHT22;5650;52.700;7.306;2023-06-10T02:53:45;16.20;99.90
11188;DHT22;5650;52.700;7.306;2023-06-10T02:56:15;16.10;99.90
11188;DHT22;5650;52.700;7.306;2023-06-10T02:58:44;16.10;99.90
11188;DHT22;5650;52.700;7.306;2023-06-10T03:01:12;16.00;99.90
11188;DHT22;5650;52.700;7.306;2023-06-10T03:03:42;16.00;99.90
11188;DHT22;5650;52.700;7.306;2023-06-10T03:06:22;15.90;99.90
11188;DHT22;5650;52.700;7.306;2023-06-10T03:09:01;15.90;99.90
11188;DHT22;5650;52.700;7.306;2023-06-10T03:11:29;15.90;99.90
11188;DHT22;5650;52.700;7.306;2023-06-10T03:14:01;15.90;99.90
11188;DHT22;5650;52.700;7.306;2023-06-10T03:16:37;15.80;99.90
11188;DHT22;5650;52.700;7.306;2023-06-10T03:19:09;15.80;99.90
11188;DHT22;5650;52.700;7.306;2023-06-10T03:21:36;15.80;99.90
11188;DHT22;5650;52.700;7.306;2023-06-10T03:24:04;15.70;99.90
11188;DHT22;5650;52.700;7.306;2023-06-10T03:26:35;15.70;99.90
11188;DHT22;5650;52.700;7.306;2023-06-10T03:29:06;15.70;99.90
11188;DHT22;5650;52.700;7.306;2023-06-10T03:31:36;15.70;99.90
11188;DHT22;5650;52.700;7.306;2023-06-10T03:34:04;15.60;99.90
11188;DHT22;5650;52.700;7.306;2023-06-10T03:36:37;15.60;99.90
11188;DHT22;5650;52.700;7.306;2023-06-10T03:39:08;15.60;99.90
11188;DHT22;5650;52.700;7.306;2023-06-10T03:41:35;15.60;99.90
11188;DHT22;5650;52.700;7.306;2023-06-10T03:44:10;15.60;99.90
11188;DHT22;5650;52.700;7.306;2023-06-10T03:46:37;15.60;99.90
11188;DHT22;5650;52.700;7.306;2023-06-10T03:49:13;15.60;99.90
11188;DHT22;5650;52.700;7.306;2023-06-10T03:51:41;15.60;99.90
11188;DHT22;5650;52.700;7.306;2023-06-10T03:54:12;15.60;99.90
11188;DHT22;5650;52.700;7.306;2023-06-10T03:56:39;15.60;99.90
11188;DHT22;5650;52.700;7.306;2023-06-10T03:59:11;15.60;99.90
11188;DHT22;5650;52.700;7.306;2023-06-10T04:01:38;15.60;99.90
11188;DHT22;5650;52.700;7.306;2023-06-10T04:04:14;15.60;99.90
11188;DHT22;5650;52.700;7.306;2023-06-10T04:06:42;15.90;99.90
11188;DHT22;5650;52.700;7.306;2023-06-10T04:09:10;16.30;99.90
11188;DHT22;5650;52.700;7.306;2023-06-10T04:11:38;16.80;99.90
11188;DHT22;5650;52.700;7.306;2023-06-10T04:14:10;17.20;99.90
11188;DHT22;5650;52.700;7.306;2023-06-10T04:16:38;17.60;99.90
11188;DHT22;5650;52.700;7.306;2023-06-10T04:19:06;18.10;99.90
11188;DHT22;5650;52.700;7.306;2023-06-10T04:21:33;18.50;99.90
11188;DHT22;5650;52.700;7.306;2023-06-10T04:24:07;18.50;99.90
11188;DHT22;5650;52.700;7.306;2023-06-10T04:26:35;18.30;99.90
11188;DHT22;5650;52.700;7.306;2023-06-10T04:29:05;18.20;99.90
11188;DHT22;5650;52.700;7.306;2023-06-10T04:31:34;18.00;99.90
11188;DHT22;5650;52.700;7.306;2023-06-10T04:34:08;17.90;99.90
11188;DHT22;5650;52.700;7.306;2023-06-10T04:36:39;17.70;99.90
11188;DHT22;5650;52.700;7.306;2023-06-10T04:39:09;17.60;99.90
11188;DHT22;5650;52.700;7.306;2023-06-10T04:41:37;17.50;99.90
11188;DHT22;5650;52.700;7.306;2023-06-10T04:44:07;17.40;99.90
11188;DHT22;5650;52.700;7.306;2023-06-10T04:46:38;17.30;99.90
11188;DHT22;5650;52.700;7.306;2023-06-10T04:49:08;17.20;99.90
11188;DHT22;5650;52.700;7.306;2023-06-10T04:51:35;17.20;99.90
11188;DHT22;5650;52.700;7.306;2023-06-10T04:54:15;17.40;99.90
11188;DHT22;5650;52.700;7.306;2023-06-10T04:56:45;17.90;99.90
11188;DHT22;5650;52.700;7.306;2023-06-10T04:59:18;18.30;99.90
11188;DHT22;5650;52.700;7.306;2023-06-10T05:01:55;18.80;99.90
11188;DHT22;5650;52.700;7.306;2023-06-10T05:04:22;19.10;99.90
11188;DHT22;5650;52.700;7.306;2023-06-10T05:06:50;19.00;99.90
11188;DHT22;5650;52.700;7.306;2023-06-10T05:09:17;19.00;99.90
11188;DHT22;5650;52.700;7.306;2023-06-10T05:11:44;18.80;99.90
11188;DHT22;5650;52.700;7.306;2023-06-10T05:14:25;18.60;99.90
11188;DHT22;5650;52.700;7.306;2023-06-10T05:16:54;18.70;99.90
11188;DHT22;5650;52.700;7.306;2023-06-10T05:19:25;19.10;99.90
11188;DHT22;5650;52.700;7.306;2023-06-10T05:21:58;19.60;99.90
11188;DHT22;5650;52.700;7.306;2023-06-10T05:24:25;19.90;99.90
11188;DHT22;5650;52.700;7.306;2023-06-10T05:26:58;20.30;99.90
11188;DHT22;5650;52.700;7.306;2023-06-10T05:29:25;20.70;99.90
11188;DHT22;5650;52.700;7.306;2023-06-10T05:31:57;21.00;99.90
11188;DHT22;5650;52.700;7.306;2023-06-10T05:34:28;21.20;99.90
11188;DHT22;5650;52.700;7.306;2023-06-10T05:36:55;21.60;99.90
11188;DHT22;5650;52.700;7.306;2023-06-10T05:39:32;22.00;99.90
11188;DHT22;5650;52.700;7.306;2023-06-10T05:42:05;22.30;99.90
11188;DHT22;5650;52.700;7.306;2023-06-10T05:44:36;22.70;99.90
11188;DHT22;5650;52.700;7.306;2023-06-10T05:47:08;22.70;99.90
11188;DHT22;5650;52.700;7.306;2023-06-10T05:49:41;22.90;99.90
11188;DHT22;5650;52.700;7.306;2023-06-10T05:52:08;22.80;99.90
11188;DHT22;5650;52.700;7.306;2023-06-10T05:54:35;22.90;99.90
11188;DHT22;5650;52.700;7.306;2023-06-10T05:57:02;23.20;99.90
11188;DHT22;5650;52.700;7.306;2023-06-10T05:59:33;23.40;99.90
11188;DHT22;5650;52.700;7.306;2023-06-10T06:02:00;23.50;99.80
11188;DHT22;5650;52.700;7.306;2023-06-10T06:04:32;23.60;99.40
11188;DHT22;5650;52.700;7.306;2023-06-10T06:06:59;23.80;99.10
11188;DHT22;5650;52.700;7.306;2023-06-10T06:09:26;23.90;98.60
11188;DHT22;5650;52.700;7.306;2023-06-10T06:11:53;23.80;98.30
11188;DHT22;5650;52.700;7.306;2023-06-10T06:14:20;23.60;98.30
11188;DHT22;5650;52.700;7.306;2023-06-10T06:16:48;23.30;99.00
11188;DHT22;5650;52.700;7.306;2023-06-10T06:19:15;23.40;98.90
11188;DHT22;5650;52.700;7.306;2023-06-10T06:21:47;23.60;98.80
11188;DHT22;5650;52.700;7.306;2023-06-10T06:24:17;23.90;98.30
11188;DHT22;5650;52.700;7.306;2023-06-10T06:26:44;23.80;98.30
11188;DHT22;5650;52.700;7.306;2023-06-10T06:29:19;23.60;98.60
11188;DHT22;5650;52.700;7.306;2023-06-10T06:31:49;23.60;98.90
11188;DHT22;5650;52.700;7.306;2023-06-10T06:34:19;23.70;98.80
11188;DHT22;5650;52.700;7.306;2023-06-10T06:36:48;24.00;98.50
11188;DHT22;5650;52.700;7.306;2023-06-10T06:39:15;24.20;98.10
11188;DHT22;5650;52.700;7.306;2023-06-10T06:41:42;24.30;98.30
11188;DHT22;5650;52.700;7.306;2023-06-10T06:44:09;24.70;97.80
11188;DHT22;5650;52.700;7.306;2023-06-10T06:46:37;24.80;97.50
11188;DHT22;5650;52.700;7.306;2023-06-10T06:49:13;24.60;96.80
11188;DHT22;5650;52.700;7.306;2023-06-10T06:51:51;24.40;97.10
11188;DHT22;5650;52.700;7.306;2023-06-10T06:54:21;24.40;97.40
11188;DHT22;5650;52.700;7.306;2023-06-10T06:56:49;24.60;97.00
11188;DHT22;5650;52.700;7.306;2023-06-10T06:59:17;24.80;96.50
11188;DHT22;5650;52.700;7.306;2023-06-10T07:01:50;24.80;96.40
11188;DHT22;5650;52.700;7.306;2023-06-10T07:04:19;24.90;96.30
11188;DHT22;5650;52.700;7.306;2023-06-10T07:06:47;25.00;96.30
11188;DHT22;5650;52.700;7.306;2023-06-10T07:09:16;25.00;96.10
11188;DHT22;5650;52.700;7.306;2023-06-10T07:11:43;25.10;96.30
11188;DHT22;5650;52.700;7.306;2023-06-10T07:14:16;25.40;96.10
11188;DHT22;5650;52.700;7.306;2023-06-10T07:16:46;25.60;95.30
11188;DHT22;5650;52.700;7.306;2023-06-10T07:19:17;25.70;95.40
11188;DHT22;5650;52.700;7.306;2023-06-10T07:21:44;25.60;94.30
11188;DHT22;5650;52.700;7.306;2023-06-10T07:24:11;25.50;94.60
11188;DHT22;5650;52.700;7.306;2023-06-10T07:26:40;25.50;94.50
11188;DHT22;5650;52.700;7.306;2023-06-10T07:29:10;25.40;95.00
11188;DHT22;5650;52.700;7.306;2023-06-10T07:31:41;25.60;94.80
11188;DHT22;5650;52.700;7.306;2023-06-10T07:34:18;25.90;94.20
11188;DHT22;5650;52.700;7.306;2023-06-10T07:36:45;26.10;94.00
11188;DHT22;5650;52.700;7.306;2023-06-10T07:39:12;26.40;94.20
11188;DHT22;5650;52.700;7.306;2023-06-10T07:41:40;26.70;93.00
11188;DHT22;5650;52.700;7.306;2023-06-10T07:44:08;26.70;92.10
11188;DHT22;5650;52.700;7.306;2023-06-10T07:46:35;26.80;92.20
11188;DHT22;5650;52.700;7.306;2023-06-10T07:49:08;27.00;92.50
11188;DHT22;5650;52.700;7.306;2023-06-10T07:51:38;27.30;91.80
11188;DHT22;5650;52.700;7.306;2023-06-10T07:54:05;27.20;91.60
11188;DHT22;5650;52.700;7.306;2023-06-10T07:56:35;27.30;91.50
11188;DHT22;5650;52.700;7.306;2023-06-10T07:59:06;27.40;91.30
11188;DHT22;5650;52.700;7.306;2023-06-10T08:01:34;27.50;91.30
11188;DHT22;5650;52.700;7.306;2023-06-10T08:04:03;27.50;91.00
11188;DHT22;5650;52.700;7.306;2023-06-10T08:06:33;27.30;90.90
11188;DHT22;5650;52.700;7.306;2023-06-10T08:09:05;27.30;91.10
11188;DHT22;5650;52.700;7.306;2023-06-10T08:11:32;26.90;91.10
11188;DHT22;5650;52.700;7.306;2023-06-10T08:14:07;26.70;91.40
11188;DHT22;5650;52.700;7.306;2023-06-10T08:16:43;26.60;91.90
11188;DHT22;5650;52.700;7.306;2023-06-10T08:19:22;26.50;91.80
11188;DHT22;5650;52.700;7.306;2023-06-10T08:22:00;26.50;91.60
11188;DHT22;5650;52.700;7.306;2023-06-10T08:24:30;26.20;92.00
11188;DHT22;5650;52.700;7.306;2023-06-10T08:27:04;25.90;92.30
11188;DHT22;5650;52.700;7.306;2023-06-10T08:29:33;25.80;92.70
11188;DHT22;5650;52.700;7.306;2023-06-10T08:32:00;25.70;92.80
11188;DHT22;5650;52.700;7.306;2023-06-10T08:34:32;25.60;92.90
11188;DHT22;5650;52.700;7.306;2023-06-10T08:37:00;25.40;92.80
11188;DHT22;5650;52.700;7.306;2023-06-10T08:39:27;25.20;93.00
11188;DHT22;5650;52.700;7.306;2023-06-10T08:42:04;24.90;93.60
11188;DHT22;5650;52.700;7.306;2023-06-10T08:44:36;24.90;94.00
11188;DHT22;5650;52.700;7.306;2023-06-10T08:47:09;25.00;93.50
11188;DHT22;5650;52.700;7.306;2023-06-10T08:49:43;25.10;92.60
11188;DHT22;5650;52.700;7.306;2023-06-10T08:52:15;24.90;91.90
11188;DHT22;5650;52.700;7.306;2023-06-10T08:54:44;24.60;92.10
11188;DHT22;5650;52.700;7.306;2023-06-10T08:57:18;24.40;92.40
11188;DHT22;5650;52.700;7.306;2023-06-10T08:59:49;24.40;92.60
11188;DHT22;5650;52.700;7.306;2023-06-10T09:02:19;24.70;93.00
11188;DHT22;5650;52.700;7.306;2023-06-10T09:04:47;24.90;92.30
11188;DHT22;5650;52.700;7.306;2023-06-10T09:07:16;25.00;91.60
11188;DHT22;5650;52.700;7.306;2023-06-10T09:09:44;25.10;91.40
11188;DHT22;5650;52.700;7.306;2023-06-10T09:12:15;25.20;92.20
11188;DHT22;5650;52.700;7.306;2023-06-10T09:14:42;25.40;91.70
11188;DHT22;5650;52.700;7.306;2023-06-10T09:17:11;25.60;91.30
11188;DHT22;5650;52.700;7.306;2023-06-10T09:19:41;25.80;90.50
11188;DHT22;5650;52.700;7.306;2023-06-10T09:22:11;25.80;87.10
11188;DHT22;5650;52.700;7.306;2023-06-10T09:24:39;25.50;88.60
11188;DHT22;5650;52.700;7.306;2023-06-10T09:27:09;25.20;87.10
11188;DHT22;5650;52.700;7.306;2023-06-10T09:29:46;24.90;87.60
11188;DHT22;5650;52.700;7.306;2023-06-10T09:32:19;24.70;89.70
11188;DHT22;5650;52.700;7.306;2023-06-10T09:34:47;24.50;90.20
11188;DHT22;5650;52.700;7.306;2023-06-10T09:37:24;24.60;90.50
11188;DHT22;5650;52.700;7.306;2023-06-10T09:40:02;24.70;90.60
11188;DHT22;5650;52.700;7.306;2023-06-10T09:42:34;24.80;91.40
11188;DHT22;5650;52.700;7.306;2023-06-10T09:45:06;24.80;91.80
11188;DHT22;5650;52.700;7.306;2023-06-10T09:47:46;24.80;91.90
11188;DHT22;5650;52.700;7.306;2023-06-10T09:50:13;24.80;91.90
11188;DHT22;5650;52.700;7.306;2023-06-10T09:52:40;24.70;90.40
11188;DHT22;5650;52.700;7.306;2023-06-10T09:55:10;24.60;90.60
11188;DHT22;5650;52.700;7.306;2023-06-10T09:57:40;24.60;91.10
11188;DHT22;5650;52.700;7.306;2023-06-10T10:00:11;24.60;90.90
11188;DHT22;5650;52.700;7.306;2023-06-10T10:02:48;24.80;90.80
11188;DHT22;5650;52.700;7.306;2023-06-10T10:05:17;24.70;90.10
11188;DHT22;5650;52.700;7.306;2023-06-10T10:07:45;24.80;88.40
11188;DHT22;5650;52.700;7.306;2023-06-10T10:10:13;24.80;89.20
11188;DHT22;5650;52.700;7.306;2023-06-10T10:12:50;24.70;88.80
11188;DHT22;5650;52.700;7.306;2023-06-10T10:15:21;24.80;87.90
11188;DHT22;5650;52.700;7.306;2023-06-10T10:18:09;24.80;87.60
11188;DHT22;5650;52.700;7.306;2023-06-10T10:20:46;24.90;87.60
11188;DHT22;5650;52.700;7.306;2023-06-10T10:23:18;25.00;86.50
11188;DHT22;5650;52.700;7.306;2023-06-10T10:25:52;25.00;85.50
11188;DHT22;5650;52.700;7.306;2023-06-10T10:28:22;25.10;85.50
11188;DHT22;5650;52.700;7.306;2023-06-10T10:30:58;25.30;83.60
11188;DHT22;5650;52.700;7.306;2023-06-10T10:33:33;25.40;81.40
11188;DHT22;5650;52.700;7.306;2023-06-10T10:36:15;25.40;81.00
11188;DHT22;5650;52.700;7.306;2023-06-10T10:38:43;25.40;81.20
11188;DHT22;5650;52.700;7.306;2023-06-10T10:41:12;25.40;80.10
11188;DHT22;5650;52.700;7.306;2023-06-10T10:43:44;25.50;79.70
11188;DHT22;5650;52.700;7.306;2023-06-10T10:46:12;25.50;80.30
11188;DHT22;5650;52.700;7.306;2023-06-10T10:48:47;25.70;79.60
11188;DHT22;5650;52.700;7.306;2023-06-10T10:51:34;25.80;76.80
11188;DHT22;5650;52.700;7.306;2023-06-10T10:54:12;25.90;75.10
11188;DHT22;5650;52.700;7.306;2023-06-10T10:59:51;25.80;71.50
11188;DHT22;5650;52.700;7.306;2023-06-10T11:02:34;25.90;71.10
11188;DHT22;5650;52.700;7.306;2023-06-10T11:05:10;25.90;71.60
11188;DHT22;5650;52.700;7.306;2023-06-10T11:07:51;26.00;69.20
11188;DHT22;5650;52.700;7.306;2023-06-10T11:10:29;26.10;69.30
11188;DHT22;5650;52.700;7.306;2023-06-10T11:13:15;26.30;68.90
11188;DHT22;5650;52.700;7.306;2023-06-10T11:15:46;26.20;66.80
11188;DHT22;5650;52.700;7.306;2023-06-10T11:18:39;26.10;65.60
11188;DHT22;5650;52.700;7.306;2023-06-10T11:21:11;26.10;66.50
11188;DHT22;5650;52.700;7.306;2023-06-10T11:23:46;26.10;66.30
11188;DHT22;5650;52.700;7.306;2023-06-10T11:26:20;26.20;64.90
11188;DHT22;5650;52.700;7.306;2023-06-10T11:29:09;26.20;61.00
11188;DHT22;5650;52.700;7.306;2023-06-10T11:31:53;26.30;59.50
11188;DHT22;5650;52.700;7.306;2023-06-10T11:34:24;26.40;59.40
11188;DHT22;5650;52.700;7.306;2023-06-10T11:36:54;26.50;57.40
11188;DHT22;5650;52.700;7.306;2023-06-10T11:39:28;26.50;54.40
11188;DHT22;5650;52.700;7.306;2023-06-10T11:41:55;26.60;53.30
11188;DHT22;5650;52.700;7.306;2023-06-10T11:44:28;26.60;54.00
11188;DHT22;5650;52.700;7.306;2023-06-10T11:46:56;26.60;52.80
11188;DHT22;5650;52.700;7.306;2023-06-10T11:49:23;26.60;55.60
11188;DHT22;5650;52.700;7.306;2023-06-10T11:51:55;26.60;52.50
11188;DHT22;5650;52.700;7.306;2023-06-10T11:54:26;26.50;51.30
11188;DHT22;5650;52.700;7.306;2023-06-10T11:57:04;26.50;51.00
11188;DHT22;5650;52.700;7.306;2023-06-10T11:59:37;26.50;52.30
11188;DHT22;5650;52.700;7.306;2023-06-10T12:02:15;26.60;52.20
11188;DHT22;5650;52.700;7.306;2023-06-10T12:04:42;26.60;56.50
11188;DHT22;5650;52.700;7.306;2023-06-10T12:07:17;26.60;57.20
11188;DHT22;5650;52.700;7.306;2023-06-10T12:09:58;26.60;58.00
11188;DHT22;5650;52.700;7.306;2023-06-10T12:12:26;26.80;56.90
11188;DHT22;5650;52.700;7.306;2023-06-10T12:14:54;26.80;57.70
11188;DHT22;5650;52.700;7.306;2023-06-10T12:17:23;26.80;58.10
11188;DHT22;5650;52.700;7.306;2023-06-10T12:19:51;26.80;58.00
11188;DHT22;5650;52.700;7.306;2023-06-10T12:22:19;26.80;59.40
11188;DHT22;5650;52.700;7.306;2023-06-10T12:25:07;26.80;58.50
11188;DHT22;5650;52.700;7.306;2023-06-10T12:27:35;26.80;58.40
11188;DHT22;5650;52.700;7.306;2023-06-10T12:30:05;26.80;59.00
11188;DHT22;5650;52.700;7.306;2023-06-10T12:32:43;26.90;59.40
11188;DHT22;5650;52.700;7.306;2023-06-10T12:35:17;26.90;58.00
11188;DHT22;5650;52.700;7.306;2023-06-10T12:37:56;26.90;58.70
11188;DHT22;5650;52.700;7.306;2023-06-10T12:40:29;26.80;57.30
11188;DHT22;5650;52.700;7.306;2023-06-10T12:42:57;26.90;54.10
11188;DHT22;5650;52.700;7.306;2023-06-10T12:45:31;27.00;53.60
11188;DHT22;5650;52.700;7.306;2023-06-10T12:48:06;27.10;52.70
11188;DHT22;5650;52.700;7.306;2023-06-10T12:50:35;27.20;52.80
11188;DHT22;5650;52.700;7.306;2023-06-10T12:53:04;27.30;51.60
11188;DHT22;5650;52.700;7.306;2023-06-10T12:55:38;27.30;50.60
11188;DHT22;5650;52.700;7.306;2023-06-10T12:58:05;27.30;50.90
11188;DHT22;5650;52.700;7.306;2023-06-10T13:00:33;27.30;51.10
11188;DHT22;5650;52.700;7.306;2023-06-10T13:03:01;27.30;50.90
11188;DHT22;5650;52.700;7.306;2023-06-10T13:05:32;27.30;49.80
11188;DHT22;5650;52.700;7.306;2023-06-10T13:07:59;27.30;50.60
11188;DHT22;5650;52.700;7.306;2023-06-10T13:10:28;27.30;51.10
11188;DHT22;5650;52.700;7.306;2023-06-10T13:13:06;27.40;52.90
11188;DHT22;5650;52.700;7.306;2023-06-10T13:15:41;27.40;53.70
11188;DHT22;5650;52.700;7.306;2023-06-10T13:18:11;27.40;54.70
11188;DHT22;5650;52.700;7.306;2023-06-10T13:20:38;27.40;53.80
11188;DHT22;5650;52.700;7.306;2023-06-10T13:23:05;27.40;53.40
11188;DHT22;5650;52.700;7.306;2023-06-10T13:25:43;27.30;52.30
11188;DHT22;5650;52.700;7.306;2023-06-10T13:28:10;27.20;51.50
11188;DHT22;5650;52.700;7.306;2023-06-10T13:30:37;27.20;50.40
11188;DHT22;5650;52.700;7.306;2023-06-10T13:33:05;27.20;52.30
11188;DHT22;5650;52.700;7.306;2023-06-10T13:35:44;27.20;52.70
11188;DHT22;5650;52.700;7.306;2023-06-10T13:38:23;27.20;51.80
11188;DHT22;5650;52.700;7.306;2023-06-10T13:40:53;27.20;51.30
11188;DHT22;5650;52.700;7.306;2023-06-10T13:43:20;27.20;50.50
11188;DHT22;5650;52.700;7.306;2023-06-10T13:45:47;27.20;48.80
11188;DHT22;5650;52.700;7.306;2023-06-10T13:48:14;27.30;47.70
11188;DHT22;5650;52.700;7.306;2023-06-10T13:50:42;27.30;47.90
11188;DHT22;5650;52.700;7.306;2023-06-10T13:53:11;27.40;47.70
11188;DHT22;5650;52.700;7.306;2023-06-10T13:55:38;27.40;47.00
11188;DHT22;5650;52.700;7.306;2023-06-10T13:58:09;27.40;48.00
11188;DHT22;5650;52.700;7.306;2023-06-10T14:00:36;27.50;47.90
11188;DHT22;5650;52.700;7.306;2023-06-10T14:03:03;27.50;47.50
11188;DHT22;5650;52.700;7.306;2023-06-10T14:05:30;27.60;47.60
11188;DHT22;5650;52.700;7.306;2023-06-10T14:08:06;27.60;47.90
11188;DHT22;5650;52.700;7.306;2023-06-10T14:10:33;27.60;47.70
11188;DHT22;5650;52.700;7.306;2023-06-10T14:13:03;27.60;47.60
11188;DHT22;5650;52.700;7.306;2023-06-10T14:15:32;27.60;48.70
11188;DHT22;5650;52.700;7.306;2023-06-10T14:17:59;27.60;49.80
11188;DHT22;5650;52.700;7.306;2023-06-10T14:20:26;27.50;48.60
11188;DHT22;5650;52.700;7.306;2023-06-10T14:22:57;27.50;48.80
11188;DHT22;5650;52.700;7.306;2023-06-10T14:25:25;27.50;48.80
11188;DHT22;5650;52.700;7.306;2023-06-10T14:27:52;27.60;47.20
11188;DHT22;5650;52.700;7.306;2023-06-10T14:30:19;27.60;47.10
11188;DHT22;5650;52.700;7.306;2023-06-10T14:32:48;27.70;47.40
11188;DHT22;5650;52.700;7.306;2023-06-10T14:35:21;27.70;47.40
11188;DHT22;5650;52.700;7.306;2023-06-10T14:37:48;27.70;47.80
11188;DHT22;5650;52.700;7.306;2023-06-10T14:40:16;27.70;47.40
11188;DHT22;5650;52.700;7.306;2023-06-10T14:42:43;27.60;48.20
11188;DHT22;5650;52.700;7.306;2023-06-10T14:45:10;27.70;47.20
11188;DHT22;5650;52.700;7.306;2023-06-10T14:47:37;27.70;47.00
11188;DHT22;5650;52.700;7.306;2023-06-10T14:50:09;27.80;47.10
11188;DHT22;5650;52.700;7.306;2023-06-10T14:52:36;27.80;46.90
11188;DHT22;5650;52.700;7.306;2023-06-10T14:55:07;27.80;45.70
11188;DHT22;5650;52.700;7.306;2023-06-10T14:57:34;27.80;45.40
11188;DHT22;5650;52.700;7.306;2023-06-10T15:00:01;27.80;45.40
11188;DHT22;5650;52.700;7.306;2023-06-10T15:02:29;27.70;45.70
11188;DHT22;5650;52.700;7.306;2023-06-10T15:04:56;27.80;45.10
11188;DHT22;5650;52.700;7.306;2023-06-10T15:07:27;27.80;45.20
11188;DHT22;5650;52.700;7.306;2023-06-10T15:09:54;27.80;46.10
11188;DHT22;5650;52.700;7.306;2023-06-10T15:12:22;27.80;46.60
11188;DHT22;5650;52.700;7.306;2023-06-10T15:14:56;27.80;46.40
11188;DHT22;5650;52.700;7.306;2023-06-10T15:17:26;27.70;47.60
11188;DHT22;5650;52.700;7.306;2023-06-10T15:19:53;27.80;48.50
11188;DHT22;5650;52.700;7.306;2023-06-10T15:22:22;27.80;48.90
11188;DHT22;5650;52.700;7.306;2023-06-10T15:24:51;27.80;49.10
11188;DHT22;5650;52.700;7.306;2023-06-10T15:27:18;27.80;49.20
11188;DHT22;5650;52.700;7.306;2023-06-10T15:29:45;27.80;49.10
11188;DHT22;5650;52.700;7.306;2023-06-10T15:32:13;27.80;50.00
11188;DHT22;5650;52.700;7.306;2023-06-10T15:34:40;27.80;50.70
11188;DHT22;5650;52.700;7.306;2023-06-10T15:37:08;27.80;50.80
11188;DHT22;5650;52.700;7.306;2023-06-10T15:39:36;27.80;51.30
11188;DHT22;5650;52.700;7.306;2023-06-10T15:42:05;27.80;52.10
11188;DHT22;5650;52.700;7.306;2023-06-10T15:44:32;27.90;51.90
11188;DHT22;5650;52.700;7.306;2023-06-10T15:46:59;27.80;51.80
11188;DHT22;5650;52.700;7.306;2023-06-10T15:49:27;27.90;52.20
11188;DHT22;5650;52.700;7.306;2023-06-10T15:51:54;27.90;51.90
11188;DHT22;5650;52.700;7.306;2023-06-10T15:54:21;27.90;52.30
11188;DHT22;5650;52.700;7.306;2023-06-10T15:56:48;27.80;52.90
11188;DHT22;5650;52.700;7.306;2023-06-10T15:59:17;27.80;53.50
11188;DHT22;5650;52.700;7.306;2023-06-10T16:01:49;27.70;53.40
11188;DHT22;5650;52.700;7.306;2023-06-10T16:04:27;27.70;53.40
11188;DHT22;5650;52.700;7.306;2023-06-10T16:06:54;27.70;53.60
11188;DHT22;5650;52.700;7.306;2023-06-10T16:09:31;27.60;53.70